Hoy, Mississippi
Current Conditions -  °F | °C
As of 1:55 PM on Thursday 30 Oct 2014 (Local Time) from KPIB Reporting Station
Clear Clear  
Wind Chill: 72°   Ceiling: Unl
Heat Index: 72°   Visibility: 10mi
Dew Point: 36°   Wind: 12mph
Humidity: 27%   Direction: 20°NNE
Pressure: 30.08"   Gusts: NA
Location:  31.6875°N, 89.1116°W
Report Text: KPIB 301855Z AUTO 02010KT 10SM CLR 22/02 A3008 RMK AO1
Loading
Personal Weather Stations






























Interactive Weather Map
Tropical Storm Tracking
New forecast layout! Learn more

10-Day Weather Forecast

Advertisements
Track Severe Weather on mobile